Field WX: KFPK 231135Z AUTO 24007KT 10SM CLR 05/M01 A3002 RMK AO2 T00531015 Decode METAR

YouTube! Facebook

JSN Epic is designed by JoomlaShine.com